Time;durP1;ratioP1;P1;durP2;ratioP2;P2;SDS_P1;SDS_P2;PMS_P1;PMS_P2;Temp;Humidity;BMP_temperature;BMP_pressure;BME280_temperature;BME280_humidity;BME280_pressure;Samples;Min_cycle;Max_cycle;Signal;HPM_P1;HPM_P2
2022/01/03 00:01:25;;;;;;;2.95;0.82;;;;;;;;;;5014898;28;87898;-61
2022/01/03 00:03:51;;;;;;;1.30;0.90;;;;;;;;;;5014850;28;88068;-61
2022/01/03 00:06:20;;;;;;;1.33;0.80;;;;;;;;;;5012598;28;88711;-61
2022/01/03 00:08:47;;;;;;;2.95;1.10;;;;;;;;;;5014757;28;90533;-61
2022/01/03 00:11:15;;;;;;;3.25;1.10;;;;;;;;;;5019236;28;88070;-61
2022/01/03 00:13:43;;;;;;;2.75;0.63;;;;;;;;;;5016399;28;88943;-61
2022/01/03 00:16:10;;;;;;;2.47;1.08;;;;;;;;;;5002376;28;87973;-61
2022/01/03 00:18:37;;;;;;;2.30;0.85;;;;;;;;;;5004380;28;88022;-61
2022/01/03 00:21:06;;;;;;;1.80;0.90;;;;;;;;;;5014918;28;88855;-61
2022/01/03 00:23:33;;;;;;;1.67;0.82;;;;;;;;;;5017997;28;87647;-61
2022/01/03 00:26:00;;;;;;;1.85;0.95;;;;;;;;;;5020009;28;88076;-61
2022/01/03 00:28:31;;;;;;;2.40;1.13;;;;;;;;;;5016943;28;88116;-61
2022/01/03 00:30:58;;;;;;;1.80;0.82;;;;;;;;;;5020362;28;88600;-62
2022/01/03 00:33:24;;;;;;;2.30;1.10;;;;;;;;;;5017502;28;88250;-61
2022/01/03 00:35:54;;;;;;;1.20;0.52;;;;;;;;;;5017421;28;87979;-61
2022/01/03 00:38:21;;;;;;;1.52;0.80;;;;;;;;;;5018010;28;88608;-62
2022/01/03 00:40:49;;;;;;;2.17;0.88;;;;;;;;;;5017797;28;87987;-62
2022/01/03 00:43:16;;;;;;;1.65;0.63;;;;;;;;;;5017351;28;88296;-61
2022/01/03 00:45:42;;;;;;;2.67;1.08;;;;;;;;;;5017972;28;87990;-62
2022/01/03 00:48:09;;;;;;;1.63;0.85;;;;;;;;;;5018087;28;87865;-61
2022/01/03 00:50:36;;;;;;;1.77;0.80;;;;;;;;;;5017177;28;88439;-62
2022/01/03 00:53:02;;;;;;;2.67;1.17;;;;;;;;;;5020181;28;88410;-61
2022/01/03 00:55:28;;;;;;;2.38;0.90;;;;;;;;;;5015617;28;88847;-61
2022/01/03 00:58:08;;;;;;;1.90;0.85;;;;;;;;;;5017411;28;90296;-61
2022/01/03 01:00:39;;;;;;;1.93;0.87;;;;;;;;;;5015715;28;88880;-61
2022/01/03 01:03:10;;;;;;;4.13;1.20;;;;;;;;;;5017128;28;88561;-62
2022/01/03 01:05:38;;;;;;;2.22;0.90;;;;;;;;;;5016598;28;88111;-61
2022/01/03 01:08:05;;;;;;;2.10;0.60;;;;;;;;;;5017036;28;88058;-61
2022/01/03 01:10:32;;;;;;;1.88;1.08;;;;;;;;;;5017179;28;88002;-61
2022/01/03 01:12:59;;;;;;;1.48;0.73;;;;;;;;;;5017608;28;89427;-61
2022/01/03 01:15:29;;;;;;;3.50;1.40;;;;;;;;;;5014781;28;88057;-61
2022/01/03 01:17:56;;;;;;;2.85;1.05;;;;;;;;;;4997123;28;88819;-62
2022/01/03 01:20:23;;;;;;;4.50;1.00;;;;;;;;;;5009639;28;88713;-62
2022/01/03 01:22:50;;;;;;;1.58;0.77;;;;;;;;;;5017143;28;89013;-62
2022/01/03 01:27:50;;;;;;;1.70;0.90;;;;;;;;;;5016104;28;88366;-61
2022/01/03 01:30:18;;;;;;;2.47;0.73;;;;;;;;;;5016207;28;88119;-61
2022/01/03 01:32:50;;;;;;;2.08;0.85;;;;;;;;;;5016495;28;88796;-61
2022/01/03 01:35:18;;;;;;;2.20;0.93;;;;;;;;;;5016190;28;87975;-61
2022/01/03 01:37:46;;;;;;;2.45;1.00;;;;;;;;;;5019904;28;87410;-61
2022/01/03 01:40:13;;;;;;;3.58;1.10;;;;;;;;;;5016110;28;88822;-61
2022/01/03 01:42:43;;;;;;;2.25;1.08;;;;;;;;;;5017005;28;87997;-62
2022/01/03 01:45:10;;;;;;;3.45;1.40;;;;;;;;;;5015732;28;88867;-61
2022/01/03 01:47:39;;;;;;;1.77;0.80;;;;;;;;;;5015935;28;90185;-62
2022/01/03 01:50:07;;;;;;;1.77;0.87;;;;;;;;;;5016637;28;88344;-62
2022/01/03 01:52:35;;;;;;;1.27;0.77;;;;;;;;;;5016281;28;89434;-62
2022/01/03 01:55:04;;;;;;;3.25;0.80;;;;;;;;;;5016234;28;87930;-61
2022/01/03 01:57:49;;;;;;;3.27;1.17;;;;;;;;;;5016050;28;88042;-61
2022/01/03 02:00:16;;;;;;;2.50;1.17;;;;;;;;;;5019360;28;88037;-62
2022/01/03 02:02:54;;;;;;;1.92;0.90;;;;;;;;;;5016394;28;87587;-61
2022/01/03 02:05:30;;;;;;;0.85;0.60;;;;;;;;;;5016876;28;88105;-61
2022/01/03 02:08:03;;;;;;;3.35;1.00;;;;;;;;;;5016396;28;88344;-62
2022/01/03 02:10:43;;;;;;;1.70;0.88;;;;;;;;;;5015513;28;88896;-62
2022/01/03 02:13:11;;;;;;;2.38;1.08;;;;;;;;;;5016335;28;88132;-62
2022/01/03 02:15:38;;;;;;;2.83;1.00;;;;;;;;;;4997142;28;89990;-61
2022/01/03 02:18:05;;;;;;;1.20;0.80;;;;;;;;;;4996089;28;88036;-61
2022/01/03 02:20:32;;;;;;;2.47;1.02;;;;;;;;;;5010381;28;88595;-61
2022/01/03 02:22:58;;;;;;;2.47;0.88;;;;;;;;;;5018770;28;88746;-61
2022/01/03 02:25:25;;;;;;;2.35;1.30;;;;;;;;;;5015731;28;88700;-62
2022/01/03 02:27:52;;;;;;;2.78;1.13;;;;;;;;;;5016059;28;87153;-62
2022/01/03 02:30:26;;;;;;;3.08;1.10;;;;;;;;;;5015748;28;88036;-61
2022/01/03 02:32:52;;;;;;;2.67;1.23;;;;;;;;;;5015350;28;88533;-61
2022/01/03 02:35:19;;;;;;;2.65;1.13;;;;;;;;;;5018156;28;89610;-61
2022/01/03 02:37:47;;;;;;;1.80;0.80;;;;;;;;;;5022885;27;88200;-61
2022/01/03 02:40:13;;;;;;;2.70;1.20;;;;;;;;;;5015679;28;87800;-61
2022/01/03 02:42:40;;;;;;;3.22;1.00;;;;;;;;;;5018829;28;88782;-61
2022/01/03 02:45:08;;;;;;;3.00;1.00;;;;;;;;;;5019547;28;88740;-61
2022/01/03 02:47:35;;;;;;;2.80;1.00;;;;;;;;;;5023291;27;90059;-61
2022/01/03 02:50:02;;;;;;;3.70;0.95;;;;;;;;;;5015055;28;87988;-62
2022/01/03 02:52:28;;;;;;;3.15;1.00;;;;;;;;;;5015948;28;87453;-61
2022/01/03 02:54:56;;;;;;;2.65;1.08;;;;;;;;;;5014633;28;88493;-61
2022/01/03 02:57:23;;;;;;;2.83;1.10;;;;;;;;;;5015625;28;87989;-61
2022/01/03 02:59:53;;;;;;;3.42;1.20;;;;;;;;;;5014455;28;89029;-62
2022/01/03 03:02:20;;;;;;;3.08;1.15;;;;;;;;;;5015546;28;89301;-61
2022/01/03 03:04:54;;;;;;;1.75;0.88;;;;;;;;;;5018199;28;88179;-62
2022/01/03 03:07:21;;;;;;;1.98;1.00;;;;;;;;;;5015428;28;88895;-61
2022/01/03 03:09:47;;;;;;;1.95;0.95;;;;;;;;;;5015772;28;88119;-61
2022/01/03 03:12:14;;;;;;;3.30;1.10;;;;;;;;;;5015005;28;88110;-61
2022/01/03 03:14:40;;;;;;;2.28;0.95;;;;;;;;;;5003761;28;88123;-61
2022/01/03 03:17:06;;;;;;;3.45;1.42;;;;;;;;;;5004040;28;87245;-62
2022/01/03 03:19:48;;;;;;;4.63;1.10;;;;;;;;;;5014213;28;88859;-61
2022/01/03 03:22:14;;;;;;;2.63;1.08;;;;;;;;;;5014994;28;88007;-61
2022/01/03 03:24:40;;;;;;;2.30;0.88;;;;;;;;;;5014848;28;89127;-61
2022/01/03 03:27:10;;;;;;;3.80;1.13;;;;;;;;;;5017409;28;87995;-61
2022/01/03 03:29:43;;;;;;;2.13;0.90;;;;;;;;;;5014824;28;88731;-61
2022/01/03 03:32:10;;;;;;;4.65;1.10;;;;;;;;;;5014374;28;87860;-61
2022/01/03 03:34:36;;;;;;;2.75;1.08;;;;;;;;;;5013918;28;88824;-62
2022/01/03 03:37:03;;;;;;;4.68;1.33;;;;;;;;;;5014155;28;88074;-61
2022/01/03 03:39:31;;;;;;;2.75;1.20;;;;;;;;;;5009242;28;88154;-62
2022/01/03 03:41:57;;;;;;;3.28;1.00;;;;;;;;;;5013166;28;87912;-61
2022/01/03 03:44:24;;;;;;;2.97;1.13;;;;;;;;;;5015433;28;88141;-62
2022/01/03 03:46:50;;;;;;;3.60;1.10;;;;;;;;;;5021251;28;88047;-62
2022/01/03 03:49:16;;;;;;;4.25;1.08;;;;;;;;;;5014646;28;88966;-62
2022/01/03 03:51:42;;;;;;;2.08;0.80;;;;;;;;;;5020284;28;87980;-62
2022/01/03 03:54:09;;;;;;;3.53;1.27;;;;;;;;;;5020291;27;89899;-62
2022/01/03 03:56:35;;;;;;;2.60;1.15;;;;;;;;;;5019847;28;87901;-61
2022/01/03 03:59:01;;;;;;;2.35;0.93;;;;;;;;;;5024497;27;87970;-61
2022/01/03 04:01:28;;;;;;;3.72;1.00;;;;;;;;;;5006817;28;87945;-62
2022/01/03 04:03:54;;;;;;;2.63;1.00;;;;;;;;;;5017299;28;88107;-61
2022/01/03 04:06:20;;;;;;;2.88;1.25;;;;;;;;;;5017706;28;87779;-62
2022/01/03 04:08:47;;;;;;;5.63;1.35;;;;;;;;;;5018124;28;90218;-62
2022/01/03 04:11:13;;;;;;;5.28;1.23;;;;;;;;;;5020469;28;88097;-62
2022/01/03 04:13:39;;;;;;;2.80;1.17;;;;;;;;;;5013935;28;88779;-62
2022/01/03 04:16:06;;;;;;;3.50;1.52;;;;;;;;;;5015174;28;88066;-62
2022/01/03 04:18:33;;;;;;;3.45;1.30;;;;;;;;;;5017009;28;88207;-61
2022/01/03 04:20:59;;;;;;;3.45;1.40;;;;;;;;;;5017107;28;88056;-61
2022/01/03 04:23:25;;;;;;;5.68;1.40;;;;;;;;;;5017905;28;87843;-62
2022/01/03 04:25:52;;;;;;;2.63;1.20;;;;;;;;;;5018073;28;88741;-62
2022/01/03 04:28:18;;;;;;;4.68;1.35;;;;;;;;;;5016650;28;90158;-62
2022/01/03 04:30:45;;;;;;;2.85;1.20;;;;;;;;;;5018006;28;88809;-62
2022/01/03 04:33:11;;;;;;;2.95;0.93;;;;;;;;;;5019715;28;88248;-62
2022/01/03 04:35:38;;;;;;;3.78;1.15;;;;;;;;;;5017700;28;87957;-62
2022/01/03 04:38:04;;;;;;;2.58;1.00;;;;;;;;;;5016920;28;89679;-63
2022/01/03 04:40:31;;;;;;;4.40;1.58;;;;;;;;;;5017082;28;89202;-62
2022/01/03 04:42:57;;;;;;;3.92;1.40;;;;;;;;;;5016698;28;88021;-62
2022/01/03 04:45:23;;;;;;;3.55;1.20;;;;;;;;;;5017489;28;89800;-61
2022/01/03 04:47:50;;;;;;;4.30;1.33;;;;;;;;;;5017539;28;90163;-62
2022/01/03 04:50:16;;;;;;;2.17;1.45;;;;;;;;;;5017176;28;87932;-61
2022/01/03 04:52:42;;;;;;;2.67;1.08;;;;;;;;;;5020409;27;88785;-62
2022/01/03 04:55:09;;;;;;;3.72;1.30;;;;;;;;;;5012942;28;87794;-62
2022/01/03 04:57:35;;;;;;;2.65;1.08;;;;;;;;;;5000715;28;88761;-61
2022/01/03 05:00:02;;;;;;;4.47;1.55;;;;;;;;;;5016882;28;88833;-62
2022/01/03 05:02:29;;;;;;;3.28;1.35;;;;;;;;;;5013851;28;88700;-61
2022/01/03 05:04:55;;;;;;;3.78;1.30;;;;;;;;;;5017643;28;87969;-62
2022/01/03 05:07:21;;;;;;;2.63;0.93;;;;;;;;;;5010849;28;88042;-62
2022/01/03 05:09:48;;;;;;;4.63;1.30;;;;;;;;;;5013994;28;87987;-62
2022/01/03 05:12:16;;;;;;;2.17;0.93;;;;;;;;;;5016567;28;88338;-62
2022/01/03 05:14:43;;;;;;;4.28;1.52;;;;;;;;;;5022819;28;87979;-62
2022/01/03 05:17:09;;;;;;;2.47;1.10;;;;;;;;;;5017087;28;89740;-62
2022/01/03 05:19:36;;;;;;;5.55;1.52;;;;;;;;;;5017709;28;87145;-62
2022/01/03 05:22:03;;;;;;;2.95;1.17;;;;;;;;;;5017270;28;88058;-62
2022/01/03 05:24:29;;;;;;;3.70;1.20;;;;;;;;;;5016754;28;88234;-62
2022/01/03 05:26:56;;;;;;;4.53;1.40;;;;;;;;;;5016097;28;88742;-62
2022/01/03 05:29:22;;;;;;;2.17;0.85;;;;;;;;;;5016437;28;88068;-61
2022/01/03 05:31:49;;;;;;;4.95;1.75;;;;;;;;;;5017654;28;88626;-62
2022/01/03 05:34:15;;;;;;;4.13;1.30;;;;;;;;;;5016657;28;87981;-62
2022/01/03 05:36:41;;;;;;;6.35;1.13;;;;;;;;;;5019558;28;88048;-61
2022/01/03 05:39:07;;;;;;;3.00;1.30;;;;;;;;;;5016335;28;88103;-62
2022/01/03 05:41:34;;;;;;;3.67;1.00;;;;;;;;;;5016548;28;88773;-62
2022/01/03 05:44:00;;;;;;;3.53;1.23;;;;;;;;;;5017282;28;87228;-62
2022/01/03 05:46:26;;;;;;;4.80;1.70;;;;;;;;;;5016535;28;88899;-62
2022/01/03 05:48:53;;;;;;;6.07;1.67;;;;;;;;;;5016627;28;87990;-62
2022/01/03 05:51:19;;;;;;;3.05;1.15;;;;;;;;;;5016964;28;89957;-62
2022/01/03 05:53:45;;;;;;;2.63;1.08;;;;;;;;;;5016086;28;88811;-62
2022/01/03 05:56:11;;;;;;;3.45;1.08;;;;;;;;;;5016035;28;88142;-62
2022/01/03 05:58:38;;;;;;;4.80;1.63;;;;;;;;;;5018966;28;87987;-62
2022/01/03 06:01:04;;;;;;;4.93;1.33;;;;;;;;;;5017025;28;88370;-62
2022/01/03 06:03:36;;;;;;;3.60;1.05;;;;;;;;;;5016366;28;88718;-62
2022/01/03 06:08:29;;;;;;;4.93;1.65;;;;;;;;;;5015124;28;88567;-62
2022/01/03 06:10:55;;;;;;;3.38;1.10;;;;;;;;;;5015914;28;87997;-62
2022/01/03 06:13:21;;;;;;;3.97;1.50;;;;;;;;;;5016331;28;87998;-62
2022/01/03 06:15:48;;;;;;;3.50;1.38;;;;;;;;;;5008008;28;88663;-62
2022/01/03 06:18:15;;;;;;;2.45;0.90;;;;;;;;;;5016672;28;88410;-62
2022/01/03 06:20:42;;;;;;;3.35;1.30;;;;;;;;;;5026387;27;88817;-62
2022/01/03 06:23:09;;;;;;;4.78;1.50;;;;;;;;;;5026996;28;89895;-62
2022/01/03 06:25:36;;;;;;;2.05;1.17;;;;;;;;;;5030788;28;89091;-62
2022/01/03 06:28:07;;;;;;;4.80;1.30;;;;;;;;;;5023257;27;87992;-62
2022/01/03 06:30:33;;;;;;;3.50;1.30;;;;;;;;;;5015379;28;88377;-62
2022/01/03 06:33:00;;;;;;;4.40;1.20;;;;;;;;;;5016036;28;88968;-62
2022/01/03 06:35:26;;;;;;;3.30;1.50;;;;;;;;;;5015910;28;88094;-62
2022/01/03 06:37:52;;;;;;;5.43;1.38;;;;;;;;;;5014959;28;88061;-62
2022/01/03 06:40:18;;;;;;;3.03;1.50;;;;;;;;;;4996099;28;89191;-62
2022/01/03 06:42:45;;;;;;;4.28;1.40;;;;;;;;;;5004143;28;88066;-62
2022/01/03 06:45:11;;;;;;;4.20;1.13;;;;;;;;;;5009276;28;88528;-62
2022/01/03 06:47:38;;;;;;;3.03;1.25;;;;;;;;;;4995823;28;87892;-62
2022/01/03 06:50:04;;;;;;;3.17;1.27;;;;;;;;;;4996328;28;89690;-62
2022/01/03 06:52:30;;;;;;;4.85;1.55;;;;;;;;;;5013840;28;88813;-62
2022/01/03 06:54:56;;;;;;;1.95;1.10;;;;;;;;;;5015358;28;88000;-62
2022/01/03 06:57:23;;;;;;;4.80;1.27;;;;;;;;;;5015780;28;87316;-62
2022/01/03 06:59:49;;;;;;;5.15;1.60;;;;;;;;;;5016047;28;88960;-62
2022/01/03 07:02:15;;;;;;;3.72;1.60;;;;;;;;;;5017505;28;88949;-62
2022/01/03 07:04:42;;;;;;;3.42;1.15;;;;;;;;;;5014512;28;89734;-62
2022/01/03 07:07:08;;;;;;;2.00;1.08;;;;;;;;;;5014566;28;87948;-62
2022/01/03 07:09:34;;;;;;;2.45;1.17;;;;;;;;;;5015248;28;88050;-62
2022/01/03 07:12:01;;;;;;;4.40;1.02;;;;;;;;;;5015599;28;88850;-62
2022/01/03 07:19:39;;;;;;;4.60;0.95;;;;;;;;;;5014381;28;87945;-62
2022/01/03 07:22:08;;;;;;;3.65;1.52;;;;;;;;;;5016746;28;87782;-62
2022/01/03 07:24:35;;;;;;;3.45;1.35;;;;;;;;;;5018606;28;88110;-62
2022/01/03 07:27:02;;;;;;;4.60;1.40;;;;;;;;;;5014491;28;88062;-62
2022/01/03 07:29:31;;;;;;;3.28;1.40;;;;;;;;;;5014852;28;89135;-62
2022/01/03 07:31:57;;;;;;;2.42;1.20;;;;;;;;;;5015821;28;90158;-62
2022/01/03 07:34:24;;;;;;;2.85;1.15;;;;;;;;;;5014700;28;88285;-62
2022/01/03 07:36:50;;;;;;;3.50;1.05;;;;;;;;;;5013859;28;88768;-62
2022/01/03 07:39:17;;;;;;;4.57;1.40;;;;;;;;;;5015019;28;88914;-62
2022/01/03 07:41:43;;;;;;;4.35;1.48;;;;;;;;;;5016086;28;88376;-62
2022/01/03 07:44:09;;;;;;;4.15;1.27;;;;;;;;;;5014832;28;89688;-62
2022/01/03 07:46:36;;;;;;;4.00;1.10;;;;;;;;;;5017927;28;87254;-62
2022/01/03 07:49:03;;;;;;;3.10;1.10;;;;;;;;;;5016000;28;89329;-62
2022/01/03 07:51:29;;;;;;;2.10;1.00;;;;;;;;;;5018671;28;89062;-62
2022/01/03 07:53:56;;;;;;;3.22;1.38;;;;;;;;;;5020891;27;89231;-62
2022/01/03 07:56:23;;;;;;;5.53;1.90;;;;;;;;;;5021605;27;90539;-62
2022/01/03 07:58:49;;;;;;;4.47;1.73;;;;;;;;;;5015126;28;88735;-62
2022/01/03 08:01:16;;;;;;;3.30;1.25;;;;;;;;;;5013943;28;88196;-62
2022/01/03 08:03:42;;;;;;;2.72;1.10;;;;;;;;;;5014436;28;88905;-62
2022/01/03 08:06:21;;;;;;;4.20;1.40;;;;;;;;;;5013592;28;87857;-62
2022/01/03 08:08:48;;;;;;;2.40;1.15;;;;;;;;;;5024597;28;87969;-62
2022/01/03 08:11:14;;;;;;;3.42;1.00;;;;;;;;;;5030815;27;88082;-62
2022/01/03 08:13:40;;;;;;;4.30;1.65;;;;;;;;;;5015071;28;88020;-62
2022/01/03 08:16:06;;;;;;;2.85;1.23;;;;;;;;;;5007323;28;89804;-62
2022/01/03 08:18:33;;;;;;;3.30;1.23;;;;;;;;;;5012273;28;90933;-62
2022/01/03 08:20:59;;;;;;;6.88;1.20;;;;;;;;;;5016252;28;89276;-62
2022/01/03 08:23:26;;;;;;;3.47;1.27;;;;;;;;;;5014988;27;87933;-62
2022/01/03 08:25:52;;;;;;;2.03;1.02;;;;;;;;;;5014286;28;87999;-62
2022/01/03 08:28:18;;;;;;;2.58;1.00;;;;;;;;;;5004987;28;88009;-62
2022/01/03 08:30:44;;;;;;;4.18;1.15;;;;;;;;;;5031025;28;87851;-62
2022/01/03 08:33:11;;;;;;;3.00;1.15;;;;;;;;;;5019032;27;89618;-62
2022/01/03 08:35:37;;;;;;;3.88;1.02;;;;;;;;;;5016306;28;87378;-62
2022/01/03 08:38:04;;;;;;;3.75;1.55;;;;;;;;;;5017167;28;89040;-61
2022/01/03 08:40:31;;;;;;;3.40;1.63;;;;;;;;;;5016973;28;88050;-62
2022/01/03 08:42:58;;;;;;;4.50;1.63;;;;;;;;;;5016605;28;88627;-62
2022/01/03 08:45:24;;;;;;;3.90;1.73;;;;;;;;;;5017247;28;90069;-62
2022/01/03 08:47:51;;;;;;;4.07;1.35;;;;;;;;;;5018267;28;87896;-62
2022/01/03 08:50:18;;;;;;;2.97;1.38;;;;;;;;;;5029154;28;87985;-62
2022/01/03 08:52:45;;;;;;;5.93;1.65;;;;;;;;;;5017261;28;89048;-62
2022/01/03 08:55:11;;;;;;;8.35;2.13;;;;;;;;;;5017067;28;87940;-62
2022/01/03 08:57:38;;;;;;;6.68;2.10;;;;;;;;;;5017914;28;90005;-62
2022/01/03 09:00:09;;;;;;;7.10;1.73;;;;;;;;;;5017820;28;87962;-62
2022/01/03 09:02:35;;;;;;;4.63;1.83;;;;;;;;;;5017014;28;88714;-62
2022/01/03 09:05:02;;;;;;;5.20;1.30;;;;;;;;;;5016971;28;90247;-62
2022/01/03 09:07:28;;;;;;;6.80;1.77;;;;;;;;;;5022555;28;88666;-62
2022/01/03 09:09:55;;;;;;;6.75;1.80;;;;;;;;;;5031346;27;89604;-62
2022/01/03 09:12:21;;;;;;;5.35;1.67;;;;;;;;;;5020345;28;87972;-62
2022/01/03 09:14:47;;;;;;;7.30;1.73;;;;;;;;;;5005600;28;87929;-62
2022/01/03 09:17:13;;;;;;;5.65;1.60;;;;;;;;;;5002282;28;88765;-62
2022/01/03 09:19:40;;;;;;;6.47;1.88;;;;;;;;;;5017568;28;88120;-62
2022/01/03 09:22:12;;;;;;;8.48;1.88;;;;;;;;;;5019525;27;89626;-62
2022/01/03 09:30:02;;;;;;;5.63;1.85;;;;;;;;;;5026499;28;87950;-62
2022/01/03 09:32:28;;;;;;;4.78;1.63;;;;;;;;;;5016705;28;89602;-62
2022/01/03 09:34:54;;;;;;;5.50;1.88;;;;;;;;;;5030801;28;88549;-62
2022/01/03 09:37:22;;;;;;;5.25;1.42;;;;;;;;;;5032747;27;89011;-62
2022/01/03 09:39:48;;;;;;;5.55;1.70;;;;;;;;;;5016691;28;88000;-62
2022/01/03 09:42:19;;;;;;;6.30;1.80;;;;;;;;;;5016448;28;88827;-62
2022/01/03 09:44:48;;;;;;;4.70;1.67;;;;;;;;;;5016960;28;88968;-62
2022/01/03 09:47:15;;;;;;;4.65;1.23;;;;;;;;;;5029186;28;88076;-62
2022/01/03 09:49:43;;;;;;;3.45;1.45;;;;;;;;;;5036785;27;88709;-62
2022/01/03 09:52:09;;;;;;;4.97;1.52;;;;;;;;;;5019602;28;88846;-62
2022/01/03 09:54:36;;;;;;;5.05;1.55;;;;;;;;;;5016020;28;88398;-62
2022/01/03 09:57:03;;;;;;;4.15;1.50;;;;;;;;;;5024661;28;89783;-62
2022/01/03 09:59:30;;;;;;;4.85;1.70;;;;;;;;;;5019217;28;88100;-62
2022/01/03 10:01:58;;;;;;;4.70;1.52;;;;;;;;;;5023203;28;87930;-62
2022/01/03 10:04:25;;;;;;;4.65;1.48;;;;;;;;;;5015746;28;89231;-62
2022/01/03 10:06:51;;;;;;;3.05;1.38;;;;;;;;;;5016281;28;87942;-62
2022/01/03 10:09:18;;;;;;;3.67;1.33;;;;;;;;;;5015924;28;88559;-62
2022/01/03 10:11:45;;;;;;;6.93;1.58;;;;;;;;;;5016242;28;89777;-62
2022/01/03 10:14:12;;;;;;;5.50;1.45;;;;;;;;;;5016703;28;87785;-62
2022/01/03 10:16:39;;;;;;;5.10;1.30;;;;;;;;;;5014977;28;88052;-62
2022/01/03 10:19:16;;;;;;;4.03;1.23;;;;;;;;;;5010185;28;88551;-61
2022/01/03 10:21:44;;;;;;;3.50;1.50;;;;;;;;;;5013447;28;89152;-61
2022/01/03 10:24:11;;;;;;;6.93;1.60;;;;;;;;;;5014452;28;87881;-61
2022/01/03 10:26:38;;;;;;;9.00;2.20;;;;;;;;;;5015183;28;87979;-59
2022/01/03 10:29:11;;;;;;;8.07;2.05;;;;;;;;;;5018283;28;88654;-61
2022/01/03 10:31:39;;;;;;;7.78;2.05;;;;;;;;;;5032903;27;88091;-61
2022/01/03 10:34:08;;;;;;;5.57;2.10;;;;;;;;;;5024030;27;88142;-61
2022/01/03 10:36:39;;;;;;;9.23;2.22;;;;;;;;;;5017583;28;88006;-61
2022/01/03 10:39:12;;;;;;;5.70;1.58;;;;;;;;;;5017451;27;89486;-61
2022/01/03 10:41:38;;;;;;;5.72;1.98;;;;;;;;;;4998618;28;87948;-61
2022/01/03 10:44:04;;;;;;;9.40;2.05;;;;;;;;;;5023265;28;89042;-61
2022/01/03 10:46:34;;;;;;;5.70;1.67;;;;;;;;;;5027850;27;88959;-62
2022/01/03 10:49:13;;;;;;;5.82;1.88;;;;;;;;;;5019433;28;88383;-61
2022/01/03 10:51:39;;;;;;;9.38;2.58;;;;;;;;;;5019470;28;87982;-61
2022/01/03 10:54:06;;;;;;;7.03;1.80;;;;;;;;;;5031980;28;88045;-61
2022/01/03 10:56:40;;;;;;;5.47;1.95;;;;;;;;;;5024539;27;88053;-61
2022/01/03 10:59:14;;;;;;;7.40;1.80;;;;;;;;;;5014734;28;87894;-62
2022/01/03 11:01:41;;;;;;;5.93;1.50;;;;;;;;;;5017241;28;88513;-62
2022/01/03 11:04:08;;;;;;;5.38;1.58;;;;;;;;;;5015856;28;87254;-61
2022/01/03 11:11:47;;;;;;;8.40;1.85;;;;;;;;;;5014981;28;90859;-63
2022/01/03 11:14:30;;;;;;;9.73;1.92;;;;;;;;;;5018820;28;88979;-61
2022/01/03 11:16:57;;;;;;;6.10;1.75;;;;;;;;;;5018580;28;88795;-62
2022/01/03 11:19:39;;;;;;;23.17;2.22;;;;;;;;;;5015838;28;89710;-62
2022/01/03 11:22:06;;;;;;;13.23;2.60;;;;;;;;;;5017457;28;87952;-61
2022/01/03 11:24:32;;;;;;;16.50;3.90;;;;;;;;;;5021614;28;88720;-62
2022/01/03 11:27:00;;;;;;;18.38;5.05;;;;;;;;;;5019412;28;88522;-62
2022/01/03 11:29:31;;;;;;;30.90;12.88;;;;;;;;;;5021443;27;87494;-63
2022/01/03 11:31:59;;;;;;;26.48;11.93;;;;;;;;;;5025501;28;89950;-61
2022/01/03 11:34:26;;;;;;;58.65;37.13;;;;;;;;;;5016138;28;89753;-62
2022/01/03 11:36:57;;;;;;;47.58;25.42;;;;;;;;;;5026676;28;89295;-62
2022/01/03 11:39:25;;;;;;;35.00;18.40;;;;;;;;;;5016211;27;89060;-62
2022/01/03 11:41:53;;;;;;;42.45;13.45;;;;;;;;;;5025906;28;88909;-61
2022/01/03 11:44:19;;;;;;;119.07;48.42;;;;;;;;;;5022807;28;89542;-61
2022/01/03 11:46:47;;;;;;;217.32;86.80;;;;;;;;;;5024670;28;88940;-63
2022/01/03 11:49:15;;;;;;;206.43;102.60;;;;;;;;;;5017576;27;88863;-61
2022/01/03 11:51:41;;;;;;;172.13;86.13;;;;;;;;;;5012555;28;91067;-64
2022/01/03 11:54:09;;;;;;;109.45;57.05;;;;;;;;;;5022077;28;90925;-64
2022/01/03 11:56:41;;;;;;;97.93;51.28;;;;;;;;;;5032215;27;89507;-64
2022/01/03 12:04:33;;;;;;;42.10;20.77;;;;;;;;;;5000698;28;89142;-64
2022/01/03 12:07:02;;;;;;;40.95;16.90;;;;;;;;;;5016228;28;88799;-63
2022/01/03 12:09:29;;;;;;;30.75;14.88;;;;;;;;;;5019584;28;89601;-63
2022/01/03 12:11:56;;;;;;;23.95;12.57;;;;;;;;;;5013914;28;88954;-63
2022/01/03 12:14:23;;;;;;;21.65;9.63;;;;;;;;;;5019136;28;89041;-64
2022/01/03 12:16:54;;;;;;;21.88;8.65;;;;;;;;;;5015685;27;88869;-63
2022/01/03 12:19:28;;;;;;;19.58;8.55;;;;;;;;;;5018126;28;88019;-63
2022/01/03 12:21:54;;;;;;;17.48;7.57;;;;;;;;;;5017396;28;87967;-63
2022/01/03 12:24:41;;;;;;;12.30;6.20;;;;;;;;;;5015509;28;88406;-63
2022/01/03 12:27:10;;;;;;;20.85;6.10;;;;;;;;;;5035483;27;90422;-63
2022/01/03 12:29:54;;;;;;;13.85;5.50;;;;;;;;;;5037257;27;88072;-63
2022/01/03 12:32:29;;;;;;;22.55;5.45;;;;;;;;;;5040784;27;87982;-62
2022/01/03 12:35:17;;;;;;;18.02;4.95;;;;;;;;;;5034878;27;88136;-62
2022/01/03 12:37:49;;;;;;;22.05;4.72;;;;;;;;;;5034047;28;87947;-63
2022/01/03 12:40:18;;;;;;;21.55;4.63;;;;;;;;;;5035848;27;87966;-64
2022/01/03 12:42:51;;;;;;;76.72;34.10;;;;;;;;;;5037952;27;88812;-63
2022/01/03 12:45:17;;;;;;;27.65;11.93;;;;;;;;;;5034372;27;89386;-63
2022/01/03 12:47:44;;;;;;;21.38;8.02;;;;;;;;;;5036015;27;89002;-63
2022/01/03 12:50:21;;;;;;;23.80;7.13;;;;;;;;;;5018240;27;90193;-63
2022/01/03 12:52:47;;;;;;;23.08;5.75;;;;;;;;;;5016622;28;88733;-61
2022/01/03 12:55:33;;;;;;;20.33;5.72;;;;;;;;;;5019789;28;89634;-61
2022/01/03 12:57:59;;;;;;;10.70;4.80;;;;;;;;;;5017279;28;89632;-61
2022/01/03 13:00:42;;;;;;;18.65;4.95;;;;;;;;;;5020694;28;88532;-61
2022/01/03 13:03:21;;;;;;;11.73;4.13;;;;;;;;;;5016789;28;88296;-61
2022/01/03 13:06:14;;;;;;;8.93;3.13;;;;;;;;;;5018524;28;87995;-61
2022/01/03 13:08:47;;;;;;;14.52;3.95;;;;;;;;;;5016842;28;89707;-61
2022/01/03 13:11:14;;;;;;;6.15;3.00;;;;;;;;;;5017870;28;88667;-61
2022/01/03 13:13:42;;;;;;;11.57;3.53;;;;;;;;;;5003189;28;88886;-61
2022/01/03 13:16:20;;;;;;;8.65;2.65;;;;;;;;;;5019813;28;88840;-61
2022/01/03 13:18:47;;;;;;;8.93;3.03;;;;;;;;;;5015655;28;88736;-61
2022/01/03 13:21:14;;;;;;;7.75;3.15;;;;;;;;;;5017457;28;88921;-61
2022/01/03 13:23:53;;;;;;;12.32;2.78;;;;;;;;;;5015709;28;89096;-61
2022/01/03 13:26:22;;;;;;;17.20;3.35;;;;;;;;;;5013728;28;89398;-61
2022/01/03 13:28:50;;;;;;;7.53;2.87;;;;;;;;;;5015459;28;88489;-61
2022/01/03 13:31:17;;;;;;;13.95;2.78;;;;;;;;;;5016420;28;87964;-60
2022/01/03 13:33:43;;;;;;;5.18;2.22;;;;;;;;;;5015116;28;88752;-60
2022/01/03 13:36:15;;;;;;;12.15;2.67;;;;;;;;;;5016837;28;87990;-61
2022/01/03 13:38:41;;;;;;;7.47;2.40;;;;;;;;;;5018393;28;87932;-60
2022/01/03 13:41:13;;;;;;;9.57;2.50;;;;;;;;;;5016301;28;88993;-61
2022/01/03 13:43:43;;;;;;;7.00;2.30;;;;;;;;;;5013760;28;88804;-61
2022/01/03 13:51:20;;;;;;;12.75;3.00;;;;;;;;;;5017559;28;88071;-59
2022/01/03 13:53:50;;;;;;;12.18;3.60;;;;;;;;;;5016632;28;89480;-60
2022/01/03 13:56:16;;;;;;;14.77;3.22;;;;;;;;;;5016186;28;88690;-60
2022/01/03 13:58:44;;;;;;;13.45;2.50;;;;;;;;;;5007700;28;88042;-61
2022/01/03 14:01:10;;;;;;;73.93;35.15;;;;;;;;;;4999647;28;87361;-62
2022/01/03 14:03:42;;;;;;;32.85;13.82;;;;;;;;;;5006218;28;89009;-62
2022/01/03 14:06:16;;;;;;;44.47;23.88;;;;;;;;;;5013642;28;89273;-61
2022/01/03 14:08:42;;;;;;;34.90;17.83;;;;;;;;;;5001719;28;89552;-61
2022/01/03 14:11:12;;;;;;;28.52;14.77;;;;;;;;;;5031048;27;89552;-61
2022/01/03 14:13:38;;;;;;;31.27;18.40;;;;;;;;;;5032296;27;89823;-62
2022/01/03 14:16:14;;;;;;;29.85;14.20;;;;;;;;;;5017799;28;89058;-64
2022/01/03 14:18:47;;;;;;;17.27;9.02;;;;;;;;;;5035005;28;91037;-63
2022/01/03 14:21:26;;;;;;;18.48;7.90;;;;;;;;;;5022259;27;89010;-63
2022/01/03 14:23:53;;;;;;;19.43;5.90;;;;;;;;;;5009233;28;88113;-63
2022/01/03 14:26:20;;;;;;;9.27;4.55;;;;;;;;;;5016361;28;88538;-63
2022/01/03 14:29:03;;;;;;;10.40;3.72;;;;;;;;;;5014137;27;88570;-63
2022/01/03 14:31:39;;;;;;;14.10;3.97;;;;;;;;;;5015621;28;88687;-63
2022/01/03 14:34:05;;;;;;;11.43;4.05;;;;;;;;;;5013912;28;88623;-63
2022/01/03 14:36:36;;;;;;;5.82;2.90;;;;;;;;;;5016424;28;89771;-63
2022/01/03 14:39:03;;;;;;;11.65;3.30;;;;;;;;;;5014893;28;87965;-63
2022/01/03 14:41:29;;;;;;;6.93;3.28;;;;;;;;;;5018533;28;89788;-63
2022/01/03 14:43:59;;;;;;;9.20;3.13;;;;;;;;;;5019987;28;89108;-63
2022/01/03 14:46:36;;;;;;;6.35;2.63;;;;;;;;;;5016673;28;87988;-63
2022/01/03 14:49:04;;;;;;;6.00;2.25;;;;;;;;;;5017513;28;88941;-63
2022/01/03 14:51:34;;;;;;;8.73;3.08;;;;;;;;;;5025233;27;88755;-63
2022/01/03 14:54:09;;;;;;;7.75;2.53;;;;;;;;;;5016195;27;87928;-64
2022/01/03 14:56:35;;;;;;;6.70;2.30;;;;;;;;;;5031451;28;88844;-62
2022/01/03 14:59:09;;;;;;;4.07;2.22;;;;;;;;;;5033773;27;88717;-63
2022/01/03 15:01:35;;;;;;;5.45;2.40;;;;;;;;;;5033822;27;88264;-62
2022/01/03 15:04:01;;;;;;;6.50;2.60;;;;;;;;;;5020614;28;88893;-62
2022/01/03 15:06:28;;;;;;;11.18;2.78;;;;;;;;;;5014546;28;87991;-62
2022/01/03 15:08:55;;;;;;;13.30;2.75;;;;;;;;;;5018203;28;89528;-62
2022/01/03 15:11:21;;;;;;;10.07;2.47;;;;;;;;;;5015779;28;87958;-62
2022/01/03 15:13:49;;;;;;;7.10;2.42;;;;;;;;;;5015712;28;89640;-62
2022/01/03 15:16:15;;;;;;;7.72;2.63;;;;;;;;;;5030225;28;89507;-61